sensor_id;sensor_type;location;lat;lon;timestamp;P1;durP1;ratioP1;P2;durP2;ratioP2
41643;SDS011;44236;48.098;11.582;2022-12-18T05:34:53;10.40;;;5.88;;
41643;SDS011;44236;48.098;11.582;2022-12-18T05:37:18;9.50;;;5.53;;
41643;SDS011;44236;48.098;11.582;2022-12-18T05:39:44;9.55;;;5.72;;
41643;SDS011;44236;48.098;11.582;2022-12-18T05:42:10;9.38;;;6.00;;
41643;SDS011;44236;48.098;11.582;2022-12-18T05:44:35;14.68;;;6.18;;
41643;SDS011;44236;48.098;11.582;2022-12-18T05:47:01;10.13;;;5.80;;
41643;SDS011;44236;48.098;11.582;2022-12-18T05:49:26;10.55;;;5.82;;
41643;SDS011;44236;48.098;11.582;2022-12-18T05:51:52;11.32;;;6.20;;
41643;SDS011;44236;48.098;11.582;2022-12-18T05:54:18;12.88;;;7.75;;
41643;SDS011;44236;48.098;11.582;2022-12-18T05:56:43;11.55;;;6.72;;
41643;SDS011;44236;48.098;11.582;2022-12-18T05:59:09;9.55;;;6.32;;
41643;SDS011;44236;48.098;11.582;2022-12-18T06:01:34;12.30;;;6.55;;
41643;SDS011;44236;48.098;11.582;2022-12-18T06:04:00;10.98;;;6.85;;
41643;SDS011;44236;48.098;11.582;2022-12-18T06:06:26;10.90;;;6.10;;
41643;SDS011;44236;48.098;11.582;2022-12-18T06:08:53;14.30;;;6.65;;
41643;SDS011;44236;48.098;11.582;2022-12-18T06:11:20;11.00;;;5.72;;
41643;SDS011;44236;48.098;11.582;2022-12-18T06:13:54;8.90;;;6.10;;
41643;SDS011;44236;48.098;11.582;2022-12-18T06:16:20;10.38;;;6.93;;
41643;SDS011;44236;48.098;11.582;2022-12-18T06:18:46;10.55;;;6.40;;
41643;SDS011;44236;48.098;11.582;2022-12-18T06:21:12;12.38;;;6.95;;
41643;SDS011;44236;48.098;11.582;2022-12-18T06:23:37;10.10;;;6.32;;
41643;SDS011;44236;48.098;11.582;2022-12-18T06:26:06;9.25;;;6.10;;
41643;SDS011;44236;48.098;11.582;2022-12-18T06:28:33;10.90;;;6.85;;
41643;SDS011;44236;48.098;11.582;2022-12-18T06:30:59;9.85;;;6.38;;
41643;SDS011;44236;48.098;11.582;2022-12-18T06:33:28;9.32;;;6.72;;
41643;SDS011;44236;48.098;11.582;2022-12-18T06:35:54;11.35;;;6.97;;
41643;SDS011;44236;48.098;11.582;2022-12-18T06:38:24;8.80;;;5.68;;
41643;SDS011;44236;48.098;11.582;2022-12-18T06:40:49;7.82;;;5.55;;
41643;SDS011;44236;48.098;11.582;2022-12-18T06:43:15;8.60;;;5.35;;
41643;SDS011;44236;48.098;11.582;2022-12-18T06:45:41;10.15;;;5.32;;
41643;SDS011;44236;48.098;11.582;2022-12-18T06:48:07;9.40;;;5.72;;
41643;SDS011;44236;48.098;11.582;2022-12-18T06:50:32;12.55;;;6.10;;
41643;SDS011;44236;48.098;11.582;2022-12-18T06:52:58;10.00;;;6.05;;
41643;SDS011;44236;48.098;11.582;2022-12-18T06:55:24;8.77;;;5.32;;
41643;SDS011;44236;48.098;11.582;2022-12-18T06:57:50;8.95;;;5.18;;
41643;SDS011;44236;48.098;11.582;2022-12-18T07:00:16;9.23;;;5.13;;
41643;SDS011;44236;48.098;11.582;2022-12-18T07:02:41;10.95;;;6.25;;
41643;SDS011;44236;48.098;11.582;2022-12-18T07:05:07;9.27;;;5.57;;
41643;SDS011;44236;48.098;11.582;2022-12-18T07:07:34;7.60;;;5.15;;
41643;SDS011;44236;48.098;11.582;2022-12-18T07:10:00;10.45;;;5.18;;
41643;SDS011;44236;48.098;11.582;2022-12-18T07:12:28;9.25;;;5.30;;
41643;SDS011;44236;48.098;11.582;2022-12-18T07:14:54;8.18;;;4.70;;
41643;SDS011;44236;48.098;11.582;2022-12-18T07:17:20;9.20;;;6.20;;
41643;SDS011;44236;48.098;11.582;2022-12-18T07:19:45;8.65;;;5.57;;
41643;SDS011;44236;48.098;11.582;2022-12-18T07:22:11;9.38;;;5.25;;
41643;SDS011;44236;48.098;11.582;2022-12-18T07:24:36;9.10;;;5.50;;
41643;SDS011;44236;48.098;11.582;2022-12-18T07:27:02;8.52;;;5.28;;
41643;SDS011;44236;48.098;11.582;2022-12-18T07:29:28;8.02;;;5.05;;
41643;SDS011;44236;48.098;11.582;2022-12-18T07:31:53;7.63;;;4.97;;
41643;SDS011;44236;48.098;11.582;2022-12-18T07:34:19;11.18;;;4.95;;
41643;SDS011;44236;48.098;11.582;2022-12-18T07:36:45;18.88;;;12.20;;
41643;SDS011;44236;48.098;11.582;2022-12-18T07:39:10;18.52;;;10.85;;
41643;SDS011;44236;48.098;11.582;2022-12-18T07:41:36;17.55;;;10.35;;
41643;SDS011;44236;48.098;11.582;2022-12-18T07:44:02;12.55;;;8.02;;
41643;SDS011;44236;48.098;11.582;2022-12-18T07:46:28;12.15;;;7.05;;
41643;SDS011;44236;48.098;11.582;2022-12-18T07:48:53;13.85;;;6.63;;
41643;SDS011;44236;48.098;11.582;2022-12-18T07:51:19;9.85;;;5.60;;
41643;SDS011;44236;48.098;11.582;2022-12-18T07:53:45;10.30;;;6.15;;
41643;SDS011;44236;48.098;11.582;2022-12-18T07:56:11;10.05;;;6.78;;
41643;SDS011;44236;48.098;11.582;2022-12-18T07:58:38;11.80;;;6.70;;
41643;SDS011;44236;48.098;11.582;2022-12-18T08:03:31;11.27;;;6.72;;
41643;SDS011;44236;48.098;11.582;2022-12-18T08:06:03;12.73;;;6.03;;
41643;SDS011;44236;48.098;11.582;2022-12-18T08:08:31;8.30;;;5.40;;
41643;SDS011;44236;48.098;11.582;2022-12-18T08:10:58;12.38;;;5.38;;
41643;SDS011;44236;48.098;11.582;2022-12-18T08:13:24;12.38;;;6.35;;
41643;SDS011;44236;48.098;11.582;2022-12-18T08:15:58;11.55;;;5.72;;
41643;SDS011;44236;48.098;11.582;2022-12-18T08:18:25;11.20;;;5.78;;
41643;SDS011;44236;48.098;11.582;2022-12-18T08:20:50;8.85;;;4.78;;
41643;SDS011;44236;48.098;11.582;2022-12-18T08:23:16;8.80;;;5.32;;
41643;SDS011;44236;48.098;11.582;2022-12-18T08:25:42;9.85;;;6.43;;
41643;SDS011;44236;48.098;11.582;2022-12-18T08:28:07;8.05;;;5.07;;
41643;SDS011;44236;48.098;11.582;2022-12-18T08:30:33;8.32;;;4.78;;
41643;SDS011;44236;48.098;11.582;2022-12-18T08:32:59;8.13;;;4.70;;
41643;SDS011;44236;48.098;11.582;2022-12-18T08:35:24;8.55;;;4.82;;
41643;SDS011;44236;48.098;11.582;2022-12-18T08:37:50;11.25;;;5.80;;
41643;SDS011;44236;48.098;11.582;2022-12-18T08:40:15;10.93;;;5.63;;
41643;SDS011;44236;48.098;11.582;2022-12-18T08:42:41;9.25;;;5.30;;
41643;SDS011;44236;48.098;11.582;2022-12-18T08:45:25;12.00;;;5.13;;
41643;SDS011;44236;48.098;11.582;2022-12-18T08:47:51;8.63;;;4.95;;
41643;SDS011;44236;48.098;11.582;2022-12-18T08:50:17;10.60;;;4.78;;
41643;SDS011;44236;48.098;11.582;2022-12-18T08:52:42;10.30;;;4.80;;
41643;SDS011;44236;48.098;11.582;2022-12-18T08:55:08;8.73;;;4.28;;
41643;SDS011;44236;48.098;11.582;2022-12-18T08:57:35;8.80;;;4.95;;
41643;SDS011;44236;48.098;11.582;2022-12-18T09:00:00;8.82;;;4.95;;
41643;SDS011;44236;48.098;11.582;2022-12-18T09:02:26;9.32;;;5.90;;
41643;SDS011;44236;48.098;11.582;2022-12-18T09:04:53;10.10;;;4.88;;
41643;SDS011;44236;48.098;11.582;2022-12-18T09:07:18;12.73;;;5.28;;
41643;SDS011;44236;48.098;11.582;2022-12-18T09:09:44;7.78;;;4.50;;
41643;SDS011;44236;48.098;11.582;2022-12-18T09:12:09;31.90;;;15.70;;
41643;SDS011;44236;48.098;11.582;2022-12-18T09:14:35;60.45;;;26.13;;
41643;SDS011;44236;48.098;11.582;2022-12-18T09:17:01;64.00;;;30.02;;
41643;SDS011;44236;48.098;11.582;2022-12-18T09:19:26;53.55;;;24.05;;
41643;SDS011;44236;48.098;11.582;2022-12-18T09:21:52;66.38;;;32.72;;
41643;SDS011;44236;48.098;11.582;2022-12-18T09:24:18;64.82;;;30.20;;
41643;SDS011;44236;48.098;11.582;2022-12-18T09:26:43;70.32;;;33.20;;
41643;SDS011;44236;48.098;11.582;2022-12-18T09:29:09;75.07;;;35.90;;
41643;SDS011;44236;48.098;11.582;2022-12-18T09:31:35;61.92;;;29.60;;
41643;SDS011;44236;48.098;11.582;2022-12-18T09:34:02;55.50;;;27.55;;
41643;SDS011;44236;48.098;11.582;2022-12-18T09:36:28;64.60;;;32.97;;
41643;SDS011;44236;48.098;11.582;2022-12-18T09:38:54;64.93;;;30.90;;
41643;SDS011;44236;48.098;11.582;2022-12-18T09:41:33;45.63;;;20.67;;
41643;SDS011;44236;48.098;11.582;2022-12-18T09:44:04;43.13;;;20.75;;
41643;SDS011;44236;48.098;11.582;2022-12-18T09:47:07;47.35;;;19.98;;
41643;SDS011;44236;48.098;11.582;2022-12-18T09:49:58;58.10;;;25.77;;
41643;SDS011;44236;48.098;11.582;2022-12-18T09:52:27;49.90;;;24.30;;
41643;SDS011;44236;48.098;11.582;2022-12-18T09:55:27;60.83;;;26.40;;
41643;SDS011;44236;48.098;11.582;2022-12-18T09:58:02;55.33;;;24.08;;
41643;SDS011;44236;48.098;11.582;2022-12-18T10:00:42;45.97;;;23.02;;
41643;SDS011;44236;48.098;11.582;2022-12-18T10:03:12;49.40;;;22.20;;
41643;SDS011;44236;48.098;11.582;2022-12-18T10:11:01;37.58;;;18.38;;
41643;SDS011;44236;48.098;11.582;2022-12-18T10:14:14;41.97;;;20.10;;
41643;SDS011;44236;48.098;11.582;2022-12-18T10:24:52;33.55;;;15.05;;
41643;SDS011;44236;48.098;11.582;2022-12-18T10:27:31;35.90;;;16.45;;
41643;SDS011;44236;48.098;11.582;2022-12-18T10:29:57;30.15;;;14.40;;
41643;SDS011;44236;48.098;11.582;2022-12-18T10:32:24;24.42;;;12.57;;
41643;SDS011;44236;48.098;11.582;2022-12-18T10:34:52;22.40;;;12.82;;
41643;SDS011;44236;48.098;11.582;2022-12-18T10:37:21;28.42;;;14.10;;
41643;SDS011;44236;48.098;11.582;2022-12-18T10:42:40;33.43;;;15.50;;
41643;SDS011;44236;48.098;11.582;2022-12-18T10:45:11;27.15;;;13.40;;
41643;SDS011;44236;48.098;11.582;2022-12-18T10:47:45;29.52;;;11.88;;
41643;SDS011;44236;48.098;11.582;2022-12-18T10:50:20;26.60;;;12.32;;
41643;SDS011;44236;48.098;11.582;2022-12-18T10:52:59;29.42;;;12.70;;
41643;SDS011;44236;48.098;11.582;2022-12-18T10:55:38;27.60;;;12.18;;
41643;SDS011;44236;48.098;11.582;2022-12-18T10:58:16;35.63;;;15.18;;
41643;SDS011;44236;48.098;11.582;2022-12-18T11:01:07;29.20;;;13.20;;
41643;SDS011;44236;48.098;11.582;2022-12-18T11:03:43;26.45;;;10.65;;
41643;SDS011;44236;48.098;11.582;2022-12-18T11:06:23;29.38;;;13.07;;
41643;SDS011;44236;48.098;11.582;2022-12-18T11:11:42;24.23;;;11.60;;
41643;SDS011;44236;48.098;11.582;2022-12-18T11:14:24;28.75;;;12.05;;
41643;SDS011;44236;48.098;11.582;2022-12-18T11:16:50;23.20;;;10.57;;
41643;SDS011;44236;48.098;11.582;2022-12-18T11:19:31;18.63;;;9.05;;
41643;SDS011;44236;48.098;11.582;2022-12-18T11:22:02;15.45;;;7.57;;
41643;SDS011;44236;48.098;11.582;2022-12-18T11:24:49;17.00;;;9.18;;
41643;SDS011;44236;48.098;11.582;2022-12-18T11:27:20;19.15;;;8.07;;
41643;SDS011;44236;48.098;11.582;2022-12-18T11:29:46;26.83;;;10.90;;
41643;SDS011;44236;48.098;11.582;2022-12-18T11:32:30;20.13;;;10.02;;
41643;SDS011;44236;48.098;11.582;2022-12-18T11:35:17;20.25;;;9.13;;
41643;SDS011;44236;48.098;11.582;2022-12-18T11:37:46;28.10;;;11.00;;
41643;SDS011;44236;48.098;11.582;2022-12-18T11:40:19;22.40;;;9.32;;
41643;SDS011;44236;48.098;11.582;2022-12-18T11:43:04;20.23;;;10.10;;
41643;SDS011;44236;48.098;11.582;2022-12-18T11:45:37;18.60;;;8.90;;
41643;SDS011;44236;48.098;11.582;2022-12-18T11:48:58;22.92;;;10.02;;
41643;SDS011;44236;48.098;11.582;2022-12-18T11:51:02;22.00;;;9.50;;
41643;SDS011;44236;48.098;11.582;2022-12-18T11:53:34;18.27;;;9.32;;
41643;SDS011;44236;48.098;11.582;2022-12-18T12:04:18;19.98;;;8.65;;
41643;SDS011;44236;48.098;11.582;2022-12-18T12:20:49;17.02;;;9.20;;
41643;SDS011;44236;48.098;11.582;2022-12-18T12:26:18;11.38;;;6.30;;
41643;SDS011;44236;48.098;11.582;2022-12-18T12:29:20;11.95;;;6.45;;
41643;SDS011;44236;48.098;11.582;2022-12-18T12:32:17;9.65;;;4.90;;
41643;SDS011;44236;48.098;11.582;2022-12-18T12:41:07;21.02;;;8.90;;
41643;SDS011;44236;48.098;11.582;2022-12-18T12:43:57;29.23;;;12.90;;
41643;SDS011;44236;48.098;11.582;2022-12-18T12:46:26;42.85;;;18.58;;
41643;SDS011;44236;48.098;11.582;2022-12-18T12:48:56;36.05;;;16.75;;
41643;SDS011;44236;48.098;11.582;2022-12-18T12:53:56;55.45;;;23.98;;
41643;SDS011;44236;48.098;11.582;2022-12-18T12:56:24;428.80;;;50.97;;
41643;SDS011;44236;48.098;11.582;2022-12-18T12:59:10;55.13;;;21.88;;
41643;SDS011;44236;48.098;11.582;2022-12-18T13:07:10;35.88;;;16.75;;
41643;SDS011;44236;48.098;11.582;2022-12-18T13:10:10;30.00;;;14.32;;
41643;SDS011;44236;48.098;11.582;2022-12-18T13:15:26;21.02;;;10.70;;
41643;SDS011;44236;48.098;11.582;2022-12-18T13:25:50;27.08;;;11.00;;
41643;SDS011;44236;48.098;11.582;2022-12-18T13:28:49;20.33;;;10.20;;
41643;SDS011;44236;48.098;11.582;2022-12-18T13:31:10;15.70;;;7.68;;
41643;SDS011;44236;48.098;11.582;2022-12-18T13:33:36;22.98;;;10.68;;
41643;SDS011;44236;48.098;11.582;2022-12-18T13:38:39;25.23;;;9.75;;
41643;SDS011;44236;48.098;11.582;2022-12-18T13:43:47;15.00;;;7.90;;
41643;SDS011;44236;48.098;11.582;2022-12-18T13:51:45;10.05;;;5.50;;
41643;SDS011;44236;48.098;11.582;2022-12-18T13:54:56;11.82;;;5.82;;
41643;SDS011;44236;48.098;11.582;2022-12-18T13:57:06;12.75;;;5.97;;
41643;SDS011;44236;48.098;11.582;2022-12-18T13:59:57;12.32;;;6.18;;
41643;SDS011;44236;48.098;11.582;2022-12-18T14:02:41;11.55;;;6.35;;
41643;SDS011;44236;48.098;11.582;2022-12-18T14:05:21;12.20;;;6.60;;
41643;SDS011;44236;48.098;11.582;2022-12-18T14:08:01;10.38;;;5.53;;
41643;SDS011;44236;48.098;11.582;2022-12-18T14:10:33;10.05;;;5.20;;
41643;SDS011;44236;48.098;11.582;2022-12-18T14:13:03;10.27;;;5.63;;
41643;SDS011;44236;48.098;11.582;2022-12-18T14:15:52;10.05;;;4.93;;
41643;SDS011;44236;48.098;11.582;2022-12-18T14:20:55;9.98;;;5.80;;
41643;SDS011;44236;48.098;11.582;2022-12-18T14:23:30;9.82;;;4.90;;
41643;SDS011;44236;48.098;11.582;2022-12-18T14:26:01;11.15;;;5.40;;
41643;SDS011;44236;48.098;11.582;2022-12-18T14:28:28;9.45;;;5.07;;
41643;SDS011;44236;48.098;11.582;2022-12-18T14:30:55;9.60;;;5.15;;
41643;SDS011;44236;48.098;11.582;2022-12-18T14:33:25;9.40;;;5.15;;
41643;SDS011;44236;48.098;11.582;2022-12-18T14:36:02;8.80;;;5.10;;
41643;SDS011;44236;48.098;11.582;2022-12-18T14:40:59;9.35;;;3.83;;
41643;SDS011;44236;48.098;11.582;2022-12-18T14:43:27;7.03;;;3.70;;
41643;SDS011;44236;48.098;11.582;2022-12-18T14:45:55;10.40;;;5.13;;
41643;SDS011;44236;48.098;11.582;2022-12-18T14:48:30;11.25;;;4.18;;
41643;SDS011;44236;48.098;11.582;2022-12-18T14:53:32;6.95;;;4.07;;
41643;SDS011;44236;48.098;11.582;2022-12-18T14:56:12;7.63;;;4.28;;
41643;SDS011;44236;48.098;11.582;2022-12-18T14:58:45;10.27;;;4.30;;
41643;SDS011;44236;48.098;11.582;2022-12-18T15:01:28;8.20;;;4.80;;
41643;SDS011;44236;48.098;11.582;2022-12-18T15:04:00;8.02;;;4.35;;
41643;SDS011;44236;48.098;11.582;2022-12-18T15:06:37;6.47;;;4.38;;
41643;SDS011;44236;48.098;11.582;2022-12-18T15:09:24;12.15;;;4.53;;
41643;SDS011;44236;48.098;11.582;2022-12-18T15:11:55;7.05;;;4.03;;
41643;SDS011;44236;48.098;11.582;2022-12-18T15:17:14;7.05;;;3.42;;
41643;SDS011;44236;48.098;11.582;2022-12-18T15:19:44;7.15;;;3.53;;
41643;SDS011;44236;48.098;11.582;2022-12-18T15:22:18;8.35;;;3.83;;
41643;SDS011;44236;48.098;11.582;2022-12-18T15:24:53;7.93;;;5.30;;
41643;SDS011;44236;48.098;11.582;2022-12-18T15:27:33;7.45;;;4.28;;
41643;SDS011;44236;48.098;11.582;2022-12-18T15:32:35;6.30;;;3.55;;
41643;SDS011;44236;48.098;11.582;2022-12-18T15:35:23;7.43;;;3.67;;
41643;SDS011;44236;48.098;11.582;2022-12-18T15:37:48;6.65;;;3.33;;
41643;SDS011;44236;48.098;11.582;2022-12-18T15:40:19;6.18;;;3.35;;
41643;SDS011;44236;48.098;11.582;2022-12-18T15:42:46;6.80;;;3.83;;
41643;SDS011;44236;48.098;11.582;2022-12-18T15:45:31;5.80;;;3.10;;
41643;SDS011;44236;48.098;11.582;2022-12-18T15:47:57;5.85;;;3.13;;
41643;SDS011;44236;48.098;11.582;2022-12-18T15:50:23;6.07;;;3.25;;
41643;SDS011;44236;48.098;11.582;2022-12-18T15:52:49;7.15;;;3.42;;
41643;SDS011;44236;48.098;11.582;2022-12-18T15:55:18;5.18;;;2.95;;
41643;SDS011;44236;48.098;11.582;2022-12-18T15:58:04;5.22;;;2.60;;
41643;SDS011;44236;48.098;11.582;2022-12-18T16:00:31;6.25;;;3.47;;
41643;SDS011;44236;48.098;11.582;2022-12-18T16:02:58;5.93;;;3.35;;
41643;SDS011;44236;48.098;11.582;2022-12-18T16:05:24;5.63;;;3.20;;
41643;SDS011;44236;48.098;11.582;2022-12-18T16:07:51;5.82;;;3.53;;
41643;SDS011;44236;48.098;11.582;2022-12-18T16:10:17;7.22;;;2.95;;
41643;SDS011;44236;48.098;11.582;2022-12-18T16:12:42;8.98;;;3.30;;
41643;SDS011;44236;48.098;11.582;2022-12-18T16:15:10;10.25;;;3.63;;
41643;SDS011;44236;48.098;11.582;2022-12-18T16:17:38;6.95;;;3.15;;
41643;SDS011;44236;48.098;11.582;2022-12-18T16:20:05;9.82;;;3.50;;
41643;SDS011;44236;48.098;11.582;2022-12-18T16:25:02;5.10;;;3.10;;
41643;SDS011;44236;48.098;11.582;2022-12-18T16:27:28;8.18;;;3.78;;
41643;SDS011;44236;48.098;11.582;2022-12-18T16:29:53;7.78;;;3.97;;
41643;SDS011;44236;48.098;11.582;2022-12-18T16:32:19;10.43;;;3.92;;
41643;SDS011;44236;48.098;11.582;2022-12-18T16:34:46;8.50;;;3.40;;
41643;SDS011;44236;48.098;11.582;2022-12-18T16:37:12;7.18;;;3.40;;
41643;SDS011;44236;48.098;11.582;2022-12-18T16:39:39;10.18;;;4.22;;
41643;SDS011;44236;48.098;11.582;2022-12-18T16:42:16;7.63;;;4.50;;
41643;SDS011;44236;48.098;11.582;2022-12-18T16:44:44;8.90;;;3.53;;
41643;SDS011;44236;48.098;11.582;2022-12-18T16:47:11;8.55;;;4.15;;
41643;SDS011;44236;48.098;11.582;2022-12-18T16:49:37;7.95;;;3.25;;
41643;SDS011;44236;48.098;11.582;2022-12-18T16:52:03;9.18;;;4.03;;
41643;SDS011;44236;48.098;11.582;2022-12-18T16:54:30;11.23;;;4.50;;
41643;SDS011;44236;48.098;11.582;2022-12-18T16:56:57;9.45;;;4.07;;
41643;SDS011;44236;48.098;11.582;2022-12-18T16:59:23;7.55;;;4.43;;
41643;SDS011;44236;48.098;11.582;2022-12-18T17:01:50;8.98;;;3.83;;
41643;SDS011;44236;48.098;11.582;2022-12-18T17:04:16;8.18;;;4.43;;
41643;SDS011;44236;48.098;11.582;2022-12-18T17:06:42;10.00;;;4.70;;
41643;SDS011;44236;48.098;11.582;2022-12-18T17:09:11;9.82;;;4.32;;
41643;SDS011;44236;48.098;11.582;2022-12-18T17:11:39;10.80;;;4.57;;
41643;SDS011;44236;48.098;11.582;2022-12-18T17:14:08;11.70;;;4.82;;
41643;SDS011;44236;48.098;11.582;2022-12-18T17:16:39;8.40;;;4.20;;
41643;SDS011;44236;48.098;11.582;2022-12-18T17:19:05;10.18;;;4.75;;
41643;SDS011;44236;48.098;11.582;2022-12-18T17:21:30;9.63;;;4.85;;
41643;SDS011;44236;48.098;11.582;2022-12-18T17:23:58;8.07;;;3.58;;
41643;SDS011;44236;48.098;11.582;2022-12-18T17:26:25;9.13;;;4.13;;
41643;SDS011;44236;48.098;11.582;2022-12-18T17:28:51;10.10;;;4.75;;
41643;SDS011;44236;48.098;11.582;2022-12-18T17:31:17;10.30;;;4.32;;
41643;SDS011;44236;48.098;11.582;2022-12-18T17:33:45;10.07;;;4.13;;
41643;SDS011;44236;48.098;11.582;2022-12-18T17:36:12;11.75;;;4.13;;
41643;SDS011;44236;48.098;11.582;2022-12-18T17:38:41;9.48;;;5.53;;
41643;SDS011;44236;48.098;11.582;2022-12-18T17:41:08;10.88;;;5.03;;
41643;SDS011;44236;48.098;11.582;2022-12-18T17:43:35;8.55;;;4.57;;
41643;SDS011;44236;48.098;11.582;2022-12-18T17:46:03;9.60;;;5.20;;
41643;SDS011;44236;48.098;11.582;2022-12-18T17:48:30;8.45;;;4.55;;
41643;SDS011;44236;48.098;11.582;2022-12-18T17:51:03;11.75;;;4.97;;
41643;SDS011;44236;48.098;11.582;2022-12-18T17:53:30;9.30;;;4.47;;
41643;SDS011;44236;48.098;11.582;2022-12-18T17:55:57;11.18;;;4.85;;
41643;SDS011;44236;48.098;11.582;2022-12-18T17:58:25;12.20;;;5.40;;
41643;SDS011;44236;48.098;11.582;2022-12-18T18:00:52;9.32;;;5.13;;
41643;SDS011;44236;48.098;11.582;2022-12-18T18:03:18;9.50;;;4.50;;
41643;SDS011;44236;48.098;11.582;2022-12-18T18:05:43;9.80;;;4.72;;
41643;SDS011;44236;48.098;11.582;2022-12-18T18:08:09;8.73;;;5.18;;
41643;SDS011;44236;48.098;11.582;2022-12-18T18:10:35;14.65;;;6.60;;
41643;SDS011;44236;48.098;11.582;2022-12-18T18:13:02;11.57;;;6.43;;
41643;SDS011;44236;48.098;11.582;2022-12-18T18:15:53;14.38;;;7.43;;
41643;SDS011;44236;48.098;11.582;2022-12-18T18:18:23;13.38;;;7.22;;
41643;SDS011;44236;48.098;11.582;2022-12-18T18:20:49;16.33;;;7.78;;
41643;SDS011;44236;48.098;11.582;2022-12-18T18:23:15;14.35;;;8.05;;
41643;SDS011;44236;48.098;11.582;2022-12-18T18:25:40;16.98;;;9.07;;
41643;SDS011;44236;48.098;11.582;2022-12-18T18:28:06;16.45;;;7.97;;
41643;SDS011;44236;48.098;11.582;2022-12-18T18:30:32;14.38;;;8.60;;
41643;SDS011;44236;48.098;11.582;2022-12-18T18:33:00;15.02;;;8.63;;
41643;SDS011;44236;48.098;11.582;2022-12-18T18:35:25;19.05;;;8.80;;
41643;SDS011;44236;48.098;11.582;2022-12-18T18:37:51;28.48;;;13.95;;
41643;SDS011;44236;48.098;11.582;2022-12-18T18:40:17;64.25;;;26.33;;
41643;SDS011;44236;48.098;11.582;2022-12-18T18:42:42;67.35;;;31.42;;
41643;SDS011;44236;48.098;11.582;2022-12-18T18:45:08;77.63;;;38.03;;
41643;SDS011;44236;48.098;11.582;2022-12-18T18:47:35;76.45;;;37.97;;
41643;SDS011;44236;48.098;11.582;2022-12-18T18:50:01;91.57;;;44.88;;
41643;SDS011;44236;48.098;11.582;2022-12-18T18:52:26;96.13;;;45.22;;
41643;SDS011;44236;48.098;11.582;2022-12-18T18:54:52;101.22;;;50.42;;
41643;SDS011;44236;48.098;11.582;2022-12-18T18:57:18;94.68;;;44.47;;
41643;SDS011;44236;48.098;11.582;2022-12-18T18:59:44;96.50;;;46.78;;
41643;SDS011;44236;48.098;11.582;2022-12-18T19:02:11;97.07;;;46.95;;
41643;SDS011;44236;48.098;11.582;2022-12-18T19:04:38;89.40;;;43.63;;
41643;SDS011;44236;48.098;11.582;2022-12-18T19:07:04;85.47;;;44.08;;
41643;SDS011;44236;48.098;11.582;2022-12-18T19:09:30;89.18;;;42.75;;
41643;SDS011;44236;48.098;11.582;2022-12-18T19:11:56;84.30;;;39.63;;
41643;SDS011;44236;48.098;11.582;2022-12-18T19:14:41;90.90;;;41.50;;
41643;SDS011;44236;48.098;11.582;2022-12-18T19:17:09;82.50;;;39.95;;
41643;SDS011;44236;48.098;11.582;2022-12-18T19:19:35;83.25;;;40.80;;
41643;SDS011;44236;48.098;11.582;2022-12-18T19:22:01;76.85;;;40.70;;
41643;SDS011;44236;48.098;11.582;2022-12-18T19:24:27;73.72;;;36.20;;
41643;SDS011;44236;48.098;11.582;2022-12-18T19:26:53;79.15;;;39.30;;
41643;SDS011;44236;48.098;11.582;2022-12-18T19:29:18;75.45;;;35.90;;
41643;SDS011;44236;48.098;11.582;2022-12-18T19:31:44;71.53;;;37.33;;
41643;SDS011;44236;48.098;11.582;2022-12-18T19:34:10;66.75;;;34.25;;
41643;SDS011;44236;48.098;11.582;2022-12-18T19:36:36;70.30;;;34.60;;
41643;SDS011;44236;48.098;11.582;2022-12-18T19:39:11;60.65;;;32.25;;
41643;SDS011;44236;48.098;11.582;2022-12-18T19:41:39;64.47;;;31.85;;
41643;SDS011;44236;48.098;11.582;2022-12-18T19:44:05;53.97;;;27.95;;
41643;SDS011;44236;48.098;11.582;2022-12-18T19:46:31;57.20;;;28.42;;
41643;SDS011;44236;48.098;11.582;2022-12-18T19:48:57;54.67;;;28.08;;
41643;SDS011;44236;48.098;11.582;2022-12-18T19:51:25;51.78;;;26.13;;
41643;SDS011;44236;48.098;11.582;2022-12-18T19:53:52;56.65;;;27.52;;
41643;SDS011;44236;48.098;11.582;2022-12-18T19:56:20;51.28;;;25.42;;
41643;SDS011;44236;48.098;11.582;2022-12-18T19:58:47;56.67;;;25.40;;
41643;SDS011;44236;48.098;11.582;2022-12-18T20:01:14;49.33;;;22.25;;
41643;SDS011;44236;48.098;11.582;2022-12-18T20:03:41;41.50;;;20.20;;
41643;SDS011;44236;48.098;11.582;2022-12-18T20:06:10;41.72;;;20.70;;
41643;SDS011;44236;48.098;11.582;2022-12-18T20:08:38;47.95;;;21.75;;
41643;SDS011;44236;48.098;11.582;2022-12-18T20:11:03;43.38;;;20.73;;
41643;SDS011;44236;48.098;11.582;2022-12-18T20:13:29;43.42;;;19.85;;
41643;SDS011;44236;48.098;11.582;2022-12-18T20:15:55;37.60;;;19.63;;
41643;SDS011;44236;48.098;11.582;2022-12-18T20:18:21;39.40;;;18.63;;
41643;SDS011;44236;48.098;11.582;2022-12-18T20:20:47;35.47;;;19.25;;
41643;SDS011;44236;48.098;11.582;2022-12-18T20:23:12;31.73;;;17.42;;
41643;SDS011;44236;48.098;11.582;2022-12-18T20:25:38;35.88;;;17.90;;
41643;SDS011;44236;48.098;11.582;2022-12-18T20:28:04;39.65;;;17.05;;
41643;SDS011;44236;48.098;11.582;2022-12-18T20:30:29;40.83;;;17.23;;
41643;SDS011;44236;48.098;11.582;2022-12-18T20:32:55;34.72;;;17.70;;
41643;SDS011;44236;48.098;11.582;2022-12-18T20:35:23;35.30;;;17.67;;
41643;SDS011;44236;48.098;11.582;2022-12-18T20:37:52;33.15;;;16.17;;
41643;SDS011;44236;48.098;11.582;2022-12-18T20:40:19;28.52;;;14.98;;
41643;SDS011;44236;48.098;11.582;2022-12-18T20:42:46;25.25;;;14.07;;
41643;SDS011;44236;48.098;11.582;2022-12-18T20:45:12;26.10;;;13.93;;
41643;SDS011;44236;48.098;11.582;2022-12-18T20:47:37;29.90;;;14.05;;
41643;SDS011;44236;48.098;11.582;2022-12-18T20:50:03;28.90;;;14.05;;
41643;SDS011;44236;48.098;11.582;2022-12-18T20:52:30;31.65;;;14.35;;
41643;SDS011;44236;48.098;11.582;2022-12-18T20:54:55;25.13;;;14.00;;
41643;SDS011;44236;48.098;11.582;2022-12-18T20:57:21;28.40;;;13.32;;
41643;SDS011;44236;48.098;11.582;2022-12-18T20:59:47;25.27;;;13.93;;
41643;SDS011;44236;48.098;11.582;2022-12-18T21:02:12;25.52;;;13.50;;
41643;SDS011;44236;48.098;11.582;2022-12-18T21:04:38;26.20;;;13.52;;
41643;SDS011;44236;48.098;11.582;2022-12-18T21:07:04;25.40;;;13.43;;
41643;SDS011;44236;48.098;11.582;2022-12-18T21:09:30;31.23;;;13.35;;
41643;SDS011;44236;48.098;11.582;2022-12-18T21:11:56;22.88;;;11.95;;
41643;SDS011;44236;48.098;11.582;2022-12-18T21:14:40;24.73;;;13.15;;
41643;SDS011;44236;48.098;11.582;2022-12-18T21:17:07;21.63;;;11.82;;
41643;SDS011;44236;48.098;11.582;2022-12-18T21:19:33;22.85;;;12.27;;
41643;SDS011;44236;48.098;11.582;2022-12-18T21:21:59;22.10;;;10.93;;
41643;SDS011;44236;48.098;11.582;2022-12-18T21:24:25;17.95;;;11.18;;
41643;SDS011;44236;48.098;11.582;2022-12-18T21:26:51;20.80;;;11.63;;
41643;SDS011;44236;48.098;11.582;2022-12-18T21:29:18;20.85;;;11.23;;
41643;SDS011;44236;48.098;11.582;2022-12-18T21:31:46;20.38;;;11.15;;
41643;SDS011;44236;48.098;11.582;2022-12-18T21:34:16;20.65;;;11.07;;
41643;SDS011;44236;48.098;11.582;2022-12-18T21:36:50;21.63;;;11.68;;
41643;SDS011;44236;48.098;11.582;2022-12-18T21:39:16;22.27;;;10.88;;
41643;SDS011;44236;48.098;11.582;2022-12-18T21:41:43;21.65;;;12.48;;
41643;SDS011;44236;48.098;11.582;2022-12-18T21:44:28;20.08;;;10.80;;
41643;SDS011;44236;48.098;11.582;2022-12-18T21:46:54;22.73;;;10.98;;